sensor_id;sensor_type;location;lat;lon;timestamp;P1;durP1;ratioP1;P2;durP2;ratioP2
1879;SDS011;49285;49.002;8.390;2023-03-01T00:01:06;19.00;;;12.50;;
1879;SDS011;49285;49.002;8.390;2023-03-01T00:03:33;17.50;;;12.97;;
1879;SDS011;49285;49.002;8.390;2023-03-01T00:06:00;19.80;;;12.80;;
1879;SDS011;49285;49.002;8.390;2023-03-01T00:08:26;17.70;;;12.77;;
1879;SDS011;49285;49.002;8.390;2023-03-01T00:13:30;21.60;;;13.77;;
1879;SDS011;49285;49.002;8.390;2023-03-01T00:15:55;17.23;;;13.37;;
1879;SDS011;49285;49.002;8.390;2023-03-01T00:18:21;17.53;;;12.37;;
1879;SDS011;49285;49.002;8.390;2023-03-01T00:20:51;17.57;;;13.00;;
1879;SDS011;49285;49.002;8.390;2023-03-01T00:23:20;17.47;;;12.53;;
1879;SDS011;49285;49.002;8.390;2023-03-01T00:25:47;17.53;;;12.73;;
1879;SDS011;49285;49.002;8.390;2023-03-01T00:28:13;15.23;;;12.40;;
1879;SDS011;49285;49.002;8.390;2023-03-01T00:30:39;18.93;;;12.17;;
1879;SDS011;49285;49.002;8.390;2023-03-01T00:33:05;19.27;;;14.07;;
1879;SDS011;49285;49.002;8.390;2023-03-01T00:35:31;15.80;;;12.60;;
1879;SDS011;49285;49.002;8.390;2023-03-01T00:37:57;14.67;;;11.90;;
1879;SDS011;49285;49.002;8.390;2023-03-01T00:40:23;14.30;;;11.60;;
1879;SDS011;49285;49.002;8.390;2023-03-01T00:42:50;16.97;;;11.13;;
1879;SDS011;49285;49.002;8.390;2023-03-01T00:45:15;16.73;;;12.43;;
1879;SDS011;49285;49.002;8.390;2023-03-01T00:47:41;15.37;;;11.07;;
1879;SDS011;49285;49.002;8.390;2023-03-01T00:50:08;18.67;;;12.60;;
1879;SDS011;49285;49.002;8.390;2023-03-01T00:52:35;17.73;;;12.20;;
1879;SDS011;49285;49.002;8.390;2023-03-01T00:55:00;16.43;;;12.27;;
1879;SDS011;49285;49.002;8.390;2023-03-01T00:57:26;17.00;;;12.80;;
1879;SDS011;49285;49.002;8.390;2023-03-01T00:59:51;13.80;;;11.50;;
1879;SDS011;49285;49.002;8.390;2023-03-01T01:02:18;20.07;;;11.67;;
1879;SDS011;49285;49.002;8.390;2023-03-01T01:04:44;15.40;;;11.70;;
1879;SDS011;49285;49.002;8.390;2023-03-01T01:07:10;15.50;;;11.40;;
1879;SDS011;49285;49.002;8.390;2023-03-01T01:09:36;15.90;;;11.27;;
1879;SDS011;49285;49.002;8.390;2023-03-01T01:12:02;18.63;;;11.93;;
1879;SDS011;49285;49.002;8.390;2023-03-01T01:14:28;15.37;;;12.07;;
1879;SDS011;49285;49.002;8.390;2023-03-01T01:16:54;14.20;;;11.77;;
1879;SDS011;49285;49.002;8.390;2023-03-01T01:19:19;15.57;;;11.37;;
1879;SDS011;49285;49.002;8.390;2023-03-01T01:21:46;15.97;;;11.60;;
1879;SDS011;49285;49.002;8.390;2023-03-01T01:24:12;15.83;;;11.63;;
1879;SDS011;49285;49.002;8.390;2023-03-01T01:26:39;16.43;;;11.40;;
1879;SDS011;49285;49.002;8.390;2023-03-01T01:29:05;16.00;;;11.97;;
1879;SDS011;49285;49.002;8.390;2023-03-01T01:31:31;17.53;;;11.50;;
1879;SDS011;49285;49.002;8.390;2023-03-01T01:33:58;15.43;;;12.13;;
1879;SDS011;49285;49.002;8.390;2023-03-01T01:36:25;19.10;;;13.20;;
1879;SDS011;49285;49.002;8.390;2023-03-01T01:38:51;15.40;;;11.77;;
1879;SDS011;49285;49.002;8.390;2023-03-01T01:41:18;18.47;;;11.43;;
1879;SDS011;49285;49.002;8.390;2023-03-01T01:43:46;17.17;;;12.30;;
1879;SDS011;49285;49.002;8.390;2023-03-01T01:49:06;14.70;;;11.97;;
1879;SDS011;49285;49.002;8.390;2023-03-01T01:51:40;20.40;;;11.97;;
1879;SDS011;49285;49.002;8.390;2023-03-01T01:54:10;16.30;;;11.90;;
1879;SDS011;49285;49.002;8.390;2023-03-01T01:56:40;16.20;;;12.03;;
1879;SDS011;49285;49.002;8.390;2023-03-01T01:59:12;20.40;;;12.67;;
1879;SDS011;49285;49.002;8.390;2023-03-01T02:01:39;17.70;;;12.60;;
1879;SDS011;49285;49.002;8.390;2023-03-01T02:04:04;12.67;;;10.33;;
1879;SDS011;49285;49.002;8.390;2023-03-01T02:06:33;16.27;;;12.20;;
1879;SDS011;49285;49.002;8.390;2023-03-01T02:09:11;17.00;;;12.23;;
1879;SDS011;49285;49.002;8.390;2023-03-01T02:11:39;15.00;;;12.37;;
1879;SDS011;49285;49.002;8.390;2023-03-01T02:14:06;19.23;;;12.30;;
1879;SDS011;49285;49.002;8.390;2023-03-01T02:16:31;16.90;;;11.83;;
1879;SDS011;49285;49.002;8.390;2023-03-01T02:18:57;17.87;;;12.17;;
1879;SDS011;49285;49.002;8.390;2023-03-01T02:23:59;16.80;;;11.67;;
1879;SDS011;49285;49.002;8.390;2023-03-01T02:26:34;14.63;;;11.03;;
1879;SDS011;49285;49.002;8.390;2023-03-01T02:29:06;18.17;;;12.80;;
1879;SDS011;49285;49.002;8.390;2023-03-01T02:31:32;17.40;;;13.20;;
1879;SDS011;49285;49.002;8.390;2023-03-01T02:34:08;18.47;;;12.10;;
1879;SDS011;49285;49.002;8.390;2023-03-01T02:36:41;17.90;;;13.57;;
1879;SDS011;49285;49.002;8.390;2023-03-01T02:39:11;17.80;;;13.30;;
1879;SDS011;49285;49.002;8.390;2023-03-01T02:41:43;18.67;;;13.47;;
1879;SDS011;49285;49.002;8.390;2023-03-01T02:44:12;17.70;;;12.83;;
1879;SDS011;49285;49.002;8.390;2023-03-01T02:46:44;18.77;;;13.17;;
1879;SDS011;49285;49.002;8.390;2023-03-01T02:49:23;19.43;;;12.40;;
1879;SDS011;49285;49.002;8.390;2023-03-01T02:54:35;17.13;;;11.53;;
1879;SDS011;49285;49.002;8.390;2023-03-01T02:57:02;17.00;;;11.20;;
1879;SDS011;49285;49.002;8.390;2023-03-01T02:59:29;15.03;;;11.60;;
1879;SDS011;49285;49.002;8.390;2023-03-01T03:01:58;20.23;;;13.27;;
1879;SDS011;49285;49.002;8.390;2023-03-01T03:04:25;17.87;;;13.07;;
1879;SDS011;49285;49.002;8.390;2023-03-01T03:06:51;16.27;;;13.20;;
1879;SDS011;49285;49.002;8.390;2023-03-01T03:09:17;18.77;;;12.17;;
1879;SDS011;49285;49.002;8.390;2023-03-01T03:11:43;19.00;;;12.97;;
1879;SDS011;49285;49.002;8.390;2023-03-01T03:14:09;17.80;;;13.57;;
1879;SDS011;49285;49.002;8.390;2023-03-01T03:16:39;18.97;;;12.57;;
1879;SDS011;49285;49.002;8.390;2023-03-01T03:19:08;18.17;;;13.10;;
1879;SDS011;49285;49.002;8.390;2023-03-01T03:21:34;18.17;;;12.70;;
1879;SDS011;49285;49.002;8.390;2023-03-01T03:24:00;18.03;;;12.83;;
1879;SDS011;49285;49.002;8.390;2023-03-01T03:26:25;19.40;;;14.20;;
1879;SDS011;49285;49.002;8.390;2023-03-01T03:28:51;20.27;;;13.50;;
1879;SDS011;49285;49.002;8.390;2023-03-01T03:31:17;17.43;;;12.93;;
1879;SDS011;49285;49.002;8.390;2023-03-01T03:33:42;16.17;;;13.30;;
1879;SDS011;49285;49.002;8.390;2023-03-01T03:36:08;20.90;;;14.13;;
1879;SDS011;49285;49.002;8.390;2023-03-01T03:38:37;19.47;;;13.83;;
1879;SDS011;49285;49.002;8.390;2023-03-01T03:41:07;21.03;;;14.10;;
1879;SDS011;49285;49.002;8.390;2023-03-01T03:43:35;19.90;;;12.93;;
1879;SDS011;49285;49.002;8.390;2023-03-01T03:46:02;20.57;;;14.10;;
1879;SDS011;49285;49.002;8.390;2023-03-01T03:48:39;20.43;;;13.17;;
1879;SDS011;49285;49.002;8.390;2023-03-01T03:51:06;18.23;;;13.20;;
1879;SDS011;49285;49.002;8.390;2023-03-01T03:53:34;18.50;;;14.33;;
1879;SDS011;49285;49.002;8.390;2023-03-01T03:56:00;20.10;;;14.37;;
1879;SDS011;49285;49.002;8.390;2023-03-01T03:58:26;19.03;;;13.33;;
1879;SDS011;49285;49.002;8.390;2023-03-01T04:00:52;20.10;;;15.07;;
1879;SDS011;49285;49.002;8.390;2023-03-01T04:03:23;21.93;;;14.27;;
1879;SDS011;49285;49.002;8.390;2023-03-01T04:05:51;17.10;;;12.83;;
1879;SDS011;49285;49.002;8.390;2023-03-01T04:08:17;19.20;;;13.57;;
1879;SDS011;49285;49.002;8.390;2023-03-01T04:10:46;17.27;;;12.63;;
1879;SDS011;49285;49.002;8.390;2023-03-01T04:13:15;18.93;;;13.30;;
1879;SDS011;49285;49.002;8.390;2023-03-01T04:15:42;18.50;;;14.73;;
1879;SDS011;49285;49.002;8.390;2023-03-01T04:18:08;21.17;;;13.80;;
1879;SDS011;49285;49.002;8.390;2023-03-01T04:20:38;16.00;;;12.60;;
1879;SDS011;49285;49.002;8.390;2023-03-01T04:23:07;20.00;;;12.73;;
1879;SDS011;49285;49.002;8.390;2023-03-01T04:25:41;18.23;;;13.77;;
1879;SDS011;49285;49.002;8.390;2023-03-01T04:28:11;21.10;;;14.07;;
1879;SDS011;49285;49.002;8.390;2023-03-01T04:30:37;22.53;;;13.60;;
1879;SDS011;49285;49.002;8.390;2023-03-01T04:33:06;22.00;;;14.20;;
1879;SDS011;49285;49.002;8.390;2023-03-01T04:35:34;18.20;;;13.77;;
1879;SDS011;49285;49.002;8.390;2023-03-01T04:38:00;22.10;;;13.70;;
1879;SDS011;49285;49.002;8.390;2023-03-01T04:40:26;20.80;;;13.90;;
1879;SDS011;49285;49.002;8.390;2023-03-01T04:42:52;21.77;;;15.00;;
1879;SDS011;49285;49.002;8.390;2023-03-01T04:45:17;20.97;;;14.57;;
1879;SDS011;49285;49.002;8.390;2023-03-01T04:47:43;23.60;;;13.43;;
1879;SDS011;49285;49.002;8.390;2023-03-01T04:50:11;18.90;;;13.50;;
1879;SDS011;49285;49.002;8.390;2023-03-01T04:52:38;24.60;;;15.40;;
1879;SDS011;49285;49.002;8.390;2023-03-01T04:55:04;24.27;;;15.10;;
1879;SDS011;49285;49.002;8.390;2023-03-01T04:57:31;23.30;;;14.93;;
1879;SDS011;49285;49.002;8.390;2023-03-01T04:59:57;19.77;;;14.23;;
1879;SDS011;49285;49.002;8.390;2023-03-01T05:02:22;23.10;;;15.00;;
1879;SDS011;49285;49.002;8.390;2023-03-01T05:04:48;21.83;;;15.03;;
1879;SDS011;49285;49.002;8.390;2023-03-01T05:07:14;24.87;;;14.47;;
1879;SDS011;49285;49.002;8.390;2023-03-01T05:09:45;25.70;;;15.10;;
1879;SDS011;49285;49.002;8.390;2023-03-01T05:12:11;22.73;;;16.10;;
1879;SDS011;49285;49.002;8.390;2023-03-01T05:14:37;20.93;;;14.40;;
1879;SDS011;49285;49.002;8.390;2023-03-01T05:17:03;20.50;;;13.77;;
1879;SDS011;49285;49.002;8.390;2023-03-01T05:19:30;20.97;;;14.13;;
1879;SDS011;49285;49.002;8.390;2023-03-01T05:21:56;25.73;;;14.60;;
1879;SDS011;49285;49.002;8.390;2023-03-01T05:24:32;23.47;;;15.10;;
1879;SDS011;49285;49.002;8.390;2023-03-01T05:27:00;18.83;;;14.07;;
1879;SDS011;49285;49.002;8.390;2023-03-01T05:29:26;23.10;;;15.73;;
1879;SDS011;49285;49.002;8.390;2023-03-01T05:31:54;25.17;;;15.60;;
1879;SDS011;49285;49.002;8.390;2023-03-01T05:34:32;22.03;;;14.67;;
1879;SDS011;49285;49.002;8.390;2023-03-01T05:37:00;25.20;;;15.47;;
1879;SDS011;49285;49.002;8.390;2023-03-01T05:39:26;19.80;;;14.07;;
1879;SDS011;49285;49.002;8.390;2023-03-01T05:41:57;21.97;;;16.20;;
1879;SDS011;49285;49.002;8.390;2023-03-01T05:44:25;20.40;;;13.70;;
1879;SDS011;49285;49.002;8.390;2023-03-01T05:46:51;20.77;;;14.73;;
1879;SDS011;49285;49.002;8.390;2023-03-01T05:49:17;22.93;;;13.73;;
1879;SDS011;49285;49.002;8.390;2023-03-01T05:51:43;22.00;;;15.20;;
1879;SDS011;49285;49.002;8.390;2023-03-01T05:54:14;21.93;;;15.27;;
1879;SDS011;49285;49.002;8.390;2023-03-01T05:56:39;25.77;;;14.07;;
1879;SDS011;49285;49.002;8.390;2023-03-01T05:59:05;24.30;;;16.27;;
1879;SDS011;49285;49.002;8.390;2023-03-01T06:01:31;24.43;;;15.10;;
1879;SDS011;49285;49.002;8.390;2023-03-01T06:03:57;20.60;;;15.40;;
1879;SDS011;49285;49.002;8.390;2023-03-01T06:06:24;22.23;;;15.80;;
1879;SDS011;49285;49.002;8.390;2023-03-01T06:08:50;21.90;;;14.40;;
1879;SDS011;49285;49.002;8.390;2023-03-01T06:11:16;20.10;;;14.67;;
1879;SDS011;49285;49.002;8.390;2023-03-01T06:13:42;19.60;;;15.03;;
1879;SDS011;49285;49.002;8.390;2023-03-01T06:16:08;31.33;;;15.33;;
1879;SDS011;49285;49.002;8.390;2023-03-01T06:18:34;23.17;;;14.43;;
1879;SDS011;49285;49.002;8.390;2023-03-01T06:21:00;24.63;;;16.33;;
1879;SDS011;49285;49.002;8.390;2023-03-01T06:23:26;22.37;;;15.10;;
1879;SDS011;49285;49.002;8.390;2023-03-01T06:25:52;25.23;;;15.43;;
1879;SDS011;49285;49.002;8.390;2023-03-01T06:28:17;23.67;;;14.80;;
1879;SDS011;49285;49.002;8.390;2023-03-01T06:30:43;26.93;;;15.97;;
1879;SDS011;49285;49.002;8.390;2023-03-01T06:33:09;23.60;;;15.83;;
1879;SDS011;49285;49.002;8.390;2023-03-01T06:35:34;25.20;;;16.07;;
1879;SDS011;49285;49.002;8.390;2023-03-01T06:38:00;25.40;;;17.27;;
1879;SDS011;49285;49.002;8.390;2023-03-01T06:40:27;20.50;;;15.10;;
1879;SDS011;49285;49.002;8.390;2023-03-01T06:42:53;22.47;;;15.53;;
1879;SDS011;49285;49.002;8.390;2023-03-01T06:45:19;30.50;;;19.53;;
1879;SDS011;49285;49.002;8.390;2023-03-01T06:47:45;29.47;;;16.03;;
1879;SDS011;49285;49.002;8.390;2023-03-01T06:50:11;28.83;;;17.13;;
1879;SDS011;49285;49.002;8.390;2023-03-01T06:52:37;26.60;;;16.57;;
1879;SDS011;49285;49.002;8.390;2023-03-01T06:55:03;23.07;;;16.23;;
1879;SDS011;49285;49.002;8.390;2023-03-01T06:57:30;42.43;;;17.90;;
1879;SDS011;49285;49.002;8.390;2023-03-01T06:59:55;39.77;;;17.77;;
1879;SDS011;49285;49.002;8.390;2023-03-01T07:02:21;28.27;;;16.07;;
1879;SDS011;49285;49.002;8.390;2023-03-01T07:04:48;32.57;;;16.87;;
1879;SDS011;49285;49.002;8.390;2023-03-01T07:07:15;52.80;;;19.33;;
1879;SDS011;49285;49.002;8.390;2023-03-01T07:09:41;46.50;;;17.30;;
1879;SDS011;49285;49.002;8.390;2023-03-01T07:12:06;55.67;;;18.47;;
1879;SDS011;49285;49.002;8.390;2023-03-01T07:14:33;29.73;;;18.20;;
1879;SDS011;49285;49.002;8.390;2023-03-01T07:16:58;24.43;;;17.00;;
1879;SDS011;49285;49.002;8.390;2023-03-01T07:19:24;24.47;;;15.10;;
1879;SDS011;49285;49.002;8.390;2023-03-01T07:21:49;28.70;;;16.80;;
1879;SDS011;49285;49.002;8.390;2023-03-01T07:24:15;26.53;;;16.37;;
1879;SDS011;49285;49.002;8.390;2023-03-01T07:26:41;22.27;;;15.47;;
1879;SDS011;49285;49.002;8.390;2023-03-01T07:29:07;24.73;;;15.47;;
1879;SDS011;49285;49.002;8.390;2023-03-01T07:31:34;30.10;;;18.17;;
1879;SDS011;49285;49.002;8.390;2023-03-01T07:34:00;25.20;;;16.70;;
1879;SDS011;49285;49.002;8.390;2023-03-01T07:36:25;27.90;;;18.50;;
1879;SDS011;49285;49.002;8.390;2023-03-01T07:38:51;25.10;;;18.10;;
1879;SDS011;49285;49.002;8.390;2023-03-01T07:41:16;26.30;;;15.80;;
1879;SDS011;49285;49.002;8.390;2023-03-01T07:43:42;29.43;;;16.50;;
1879;SDS011;49285;49.002;8.390;2023-03-01T07:46:08;21.37;;;16.40;;
1879;SDS011;49285;49.002;8.390;2023-03-01T07:48:34;26.00;;;18.20;;
1879;SDS011;49285;49.002;8.390;2023-03-01T07:51:04;28.27;;;17.67;;
1879;SDS011;49285;49.002;8.390;2023-03-01T07:53:31;31.47;;;17.13;;
1879;SDS011;49285;49.002;8.390;2023-03-01T07:56:02;26.07;;;16.70;;
1879;SDS011;49285;49.002;8.390;2023-03-01T07:58:29;49.33;;;26.77;;
1879;SDS011;49285;49.002;8.390;2023-03-01T08:00:55;28.40;;;16.67;;
1879;SDS011;49285;49.002;8.390;2023-03-01T08:03:20;28.33;;;17.57;;
1879;SDS011;49285;49.002;8.390;2023-03-01T08:05:46;27.60;;;17.40;;
1879;SDS011;49285;49.002;8.390;2023-03-01T08:08:11;27.47;;;16.23;;
1879;SDS011;49285;49.002;8.390;2023-03-01T08:10:37;23.43;;;17.17;;
1879;SDS011;49285;49.002;8.390;2023-03-01T08:13:02;25.43;;;16.57;;
1879;SDS011;49285;49.002;8.390;2023-03-01T08:15:28;25.67;;;17.30;;
1879;SDS011;49285;49.002;8.390;2023-03-01T08:17:53;27.10;;;17.40;;
1879;SDS011;49285;49.002;8.390;2023-03-01T08:20:19;22.90;;;15.90;;
1879;SDS011;49285;49.002;8.390;2023-03-01T08:22:45;26.53;;;18.27;;
1879;SDS011;49285;49.002;8.390;2023-03-01T08:25:10;25.97;;;17.03;;
1879;SDS011;49285;49.002;8.390;2023-03-01T08:27:36;28.03;;;18.40;;
1879;SDS011;49285;49.002;8.390;2023-03-01T08:30:01;23.93;;;16.70;;
1879;SDS011;49285;49.002;8.390;2023-03-01T08:32:27;25.93;;;16.63;;
1879;SDS011;49285;49.002;8.390;2023-03-01T08:34:52;25.63;;;18.60;;
1879;SDS011;49285;49.002;8.390;2023-03-01T08:37:18;24.80;;;16.13;;
1879;SDS011;49285;49.002;8.390;2023-03-01T08:39:44;25.93;;;17.07;;
1879;SDS011;49285;49.002;8.390;2023-03-01T08:42:09;26.17;;;17.20;;
1879;SDS011;49285;49.002;8.390;2023-03-01T08:44:35;29.17;;;18.40;;
1879;SDS011;49285;49.002;8.390;2023-03-01T08:47:00;26.00;;;16.07;;
1879;SDS011;49285;49.002;8.390;2023-03-01T08:49:27;32.30;;;17.53;;
1879;SDS011;49285;49.002;8.390;2023-03-01T08:51:52;28.83;;;18.10;;
1879;SDS011;49285;49.002;8.390;2023-03-01T08:54:19;32.00;;;19.00;;
1879;SDS011;49285;49.002;8.390;2023-03-01T08:56:46;26.83;;;17.30;;
1879;SDS011;49285;49.002;8.390;2023-03-01T08:59:12;26.27;;;15.87;;
1879;SDS011;49285;49.002;8.390;2023-03-01T09:01:39;25.07;;;16.43;;
1879;SDS011;49285;49.002;8.390;2023-03-01T09:04:08;25.50;;;17.30;;
1879;SDS011;49285;49.002;8.390;2023-03-01T09:06:34;28.83;;;17.63;;
1879;SDS011;49285;49.002;8.390;2023-03-01T09:09:00;22.77;;;16.40;;
1879;SDS011;49285;49.002;8.390;2023-03-01T09:11:27;27.47;;;18.03;;
1879;SDS011;49285;49.002;8.390;2023-03-01T09:13:53;25.20;;;16.60;;
1879;SDS011;49285;49.002;8.390;2023-03-01T09:16:19;24.60;;;18.13;;
1879;SDS011;49285;49.002;8.390;2023-03-01T09:18:50;28.17;;;17.60;;
1879;SDS011;49285;49.002;8.390;2023-03-01T09:21:17;25.90;;;17.87;;
1879;SDS011;49285;49.002;8.390;2023-03-01T09:23:44;27.33;;;17.70;;
1879;SDS011;49285;49.002;8.390;2023-03-01T09:26:12;25.87;;;17.70;;
1879;SDS011;49285;49.002;8.390;2023-03-01T09:28:41;27.40;;;17.70;;
1879;SDS011;49285;49.002;8.390;2023-03-01T09:31:07;27.73;;;18.57;;
1879;SDS011;49285;49.002;8.390;2023-03-01T09:33:33;27.27;;;18.00;;
1879;SDS011;49285;49.002;8.390;2023-03-01T09:35:59;25.77;;;16.63;;
1879;SDS011;49285;49.002;8.390;2023-03-01T09:38:27;31.67;;;20.23;;
1879;SDS011;49285;49.002;8.390;2023-03-01T09:40:53;29.53;;;19.00;;
1879;SDS011;49285;49.002;8.390;2023-03-01T09:43:21;26.30;;;18.03;;
1879;SDS011;49285;49.002;8.390;2023-03-01T09:45:58;26.00;;;17.63;;
1879;SDS011;49285;49.002;8.390;2023-03-01T09:48:29;26.70;;;19.07;;
1879;SDS011;49285;49.002;8.390;2023-03-01T09:51:04;26.87;;;17.40;;
1879;SDS011;49285;49.002;8.390;2023-03-01T09:53:33;23.80;;;18.40;;
1879;SDS011;49285;49.002;8.390;2023-03-01T09:59:15;28.47;;;19.03;;
1879;SDS011;49285;49.002;8.390;2023-03-01T10:04:26;26.57;;;18.00;;
1879;SDS011;49285;49.002;8.390;2023-03-01T10:07:07;26.50;;;18.20;;
1879;SDS011;49285;49.002;8.390;2023-03-01T10:09:53;30.37;;;17.90;;
1879;SDS011;49285;49.002;8.390;2023-03-01T10:12:20;26.67;;;17.70;;
1879;SDS011;49285;49.002;8.390;2023-03-01T10:15:04;41.07;;;22.13;;
1879;SDS011;49285;49.002;8.390;2023-03-01T10:17:56;26.10;;;17.60;;
1879;SDS011;49285;49.002;8.390;2023-03-01T10:21:02;25.50;;;17.40;;
1879;SDS011;49285;49.002;8.390;2023-03-01T10:23:24;24.90;;;17.57;;
1879;SDS011;49285;49.002;8.390;2023-03-01T10:31:18;27.13;;;17.97;;
1879;SDS011;49285;49.002;8.390;2023-03-01T10:33:47;26.13;;;18.73;;
1879;SDS011;49285;49.002;8.390;2023-03-01T10:36:16;26.27;;;18.13;;
1879;SDS011;49285;49.002;8.390;2023-03-01T10:38:55;29.13;;;20.07;;
1879;SDS011;49285;49.002;8.390;2023-03-01T10:41:22;31.70;;;19.20;;
1879;SDS011;49285;49.002;8.390;2023-03-01T10:43:51;29.97;;;19.10;;
1879;SDS011;49285;49.002;8.390;2023-03-01T10:46:31;24.20;;;18.10;;
1879;SDS011;49285;49.002;8.390;2023-03-01T10:51:45;25.90;;;19.30;;
1879;SDS011;49285;49.002;8.390;2023-03-01T10:54:31;23.43;;;17.87;;
1879;SDS011;49285;49.002;8.390;2023-03-01T10:57:02;27.03;;;18.20;;
1879;SDS011;49285;49.002;8.390;2023-03-01T10:59:30;26.67;;;18.87;;
1879;SDS011;49285;49.002;8.390;2023-03-01T11:02:01;30.60;;;19.63;;
1879;SDS011;49285;49.002;8.390;2023-03-01T11:04:29;32.03;;;18.67;;
1879;SDS011;49285;49.002;8.390;2023-03-01T11:06:58;24.87;;;17.90;;
1879;SDS011;49285;49.002;8.390;2023-03-01T11:09:25;27.70;;;18.53;;
1879;SDS011;49285;49.002;8.390;2023-03-01T11:11:57;26.53;;;18.50;;
1879;SDS011;49285;49.002;8.390;2023-03-01T11:14:37;24.03;;;17.57;;
1879;SDS011;49285;49.002;8.390;2023-03-01T11:17:21;25.27;;;18.67;;
1879;SDS011;49285;49.002;8.390;2023-03-01T11:22:53;32.70;;;20.33;;
1879;SDS011;49285;49.002;8.390;2023-03-01T11:25:22;27.33;;;18.73;;
1879;SDS011;49285;49.002;8.390;2023-03-01T11:27:50;28.27;;;18.77;;
1879;SDS011;49285;49.002;8.390;2023-03-01T11:30:20;27.10;;;20.00;;
1879;SDS011;49285;49.002;8.390;2023-03-01T11:35:32;29.50;;;19.10;;
1879;SDS011;49285;49.002;8.390;2023-03-01T11:40:48;25.50;;;18.37;;
1879;SDS011;49285;49.002;8.390;2023-03-01T11:43:26;26.30;;;20.57;;
1879;SDS011;49285;49.002;8.390;2023-03-01T11:51:48;25.33;;;19.20;;
1879;SDS011;49285;49.002;8.390;2023-03-01T11:54:29;27.63;;;19.03;;
1879;SDS011;49285;49.002;8.390;2023-03-01T11:57:00;34.83;;;24.60;;
1879;SDS011;49285;49.002;8.390;2023-03-01T12:10:27;31.83;;;20.00;;
1879;SDS011;49285;49.002;8.390;2023-03-01T12:21:41;29.57;;;21.90;;
1879;SDS011;49285;49.002;8.390;2023-03-01T12:24:10;26.83;;;21.80;;
1879;SDS011;49285;49.002;8.390;2023-03-01T12:27:03;26.57;;;22.20;;
1879;SDS011;49285;49.002;8.390;2023-03-01T12:29:50;23.13;;;20.50;;
1879;SDS011;49285;49.002;8.390;2023-03-01T12:32:45;20.83;;;18.73;;
1879;SDS011;49285;49.002;8.390;2023-03-01T12:38:36;26.10;;;20.40;;
1879;SDS011;49285;49.002;8.390;2023-03-01T12:41:27;21.70;;;19.40;;
1879;SDS011;49285;49.002;8.390;2023-03-01T12:44:11;22.57;;;20.33;;
1879;SDS011;49285;49.002;8.390;2023-03-01T12:47:02;22.47;;;20.17;;
1879;SDS011;49285;49.002;8.390;2023-03-01T12:49:38;21.40;;;19.10;;
1879;SDS011;49285;49.002;8.390;2023-03-01T12:54:54;21.47;;;19.17;;
1879;SDS011;49285;49.002;8.390;2023-03-01T12:57:41;22.60;;;20.40;;
1879;SDS011;49285;49.002;8.390;2023-03-01T13:00:25;22.30;;;20.13;;
1879;SDS011;49285;49.002;8.390;2023-03-01T13:02:55;23.13;;;20.77;;
1879;SDS011;49285;49.002;8.390;2023-03-01T13:08:05;22.63;;;20.40;;
1879;SDS011;49285;49.002;8.390;2023-03-01T13:10:43;22.20;;;19.80;;
1879;SDS011;49285;49.002;8.390;2023-03-01T13:15:47;19.70;;;17.90;;
1879;SDS011;49285;49.002;8.390;2023-03-01T13:20:51;21.73;;;19.63;;
1879;SDS011;49285;49.002;8.390;2023-03-01T13:26:07;22.80;;;20.60;;
1879;SDS011;49285;49.002;8.390;2023-03-01T13:36:11;22.00;;;19.70;;
1879;SDS011;49285;49.002;8.390;2023-03-01T13:39:20;21.27;;;19.00;;
1879;SDS011;49285;49.002;8.390;2023-03-01T13:41:56;20.83;;;18.60;;
1879;SDS011;49285;49.002;8.390;2023-03-01T13:47:06;23.20;;;19.10;;
1879;SDS011;49285;49.002;8.390;2023-03-01T13:57:52;22.27;;;19.93;;
1879;SDS011;49285;49.002;8.390;2023-03-01T14:03:02;23.30;;;19.50;;
1879;SDS011;49285;49.002;8.390;2023-03-01T14:05:43;22.83;;;18.43;;
1879;SDS011;49285;49.002;8.390;2023-03-01T14:08:31;18.83;;;17.03;;
1879;SDS011;49285;49.002;8.390;2023-03-01T14:21:42;24.67;;;17.80;;
1879;SDS011;49285;49.002;8.390;2023-03-01T14:24:20;20.50;;;18.33;;
1879;SDS011;49285;49.002;8.390;2023-03-01T14:26:47;20.70;;;18.50;;
1879;SDS011;49285;49.002;8.390;2023-03-01T14:29:24;20.07;;;17.40;;
1879;SDS011;49285;49.002;8.390;2023-03-01T14:31:50;20.50;;;17.47;;
1879;SDS011;49285;49.002;8.390;2023-03-01T14:34:20;19.67;;;17.63;;
1879;SDS011;49285;49.002;8.390;2023-03-01T14:36:48;20.97;;;17.90;;
1879;SDS011;49285;49.002;8.390;2023-03-01T14:39:17;21.60;;;17.97;;
1879;SDS011;49285;49.002;8.390;2023-03-01T14:41:44;20.33;;;17.90;;
1879;SDS011;49285;49.002;8.390;2023-03-01T14:44:21;20.53;;;18.00;;
1879;SDS011;49285;49.002;8.390;2023-03-01T14:46:51;23.10;;;17.00;;
1879;SDS011;49285;49.002;8.390;2023-03-01T14:49:20;19.13;;;17.03;;
1879;SDS011;49285;49.002;8.390;2023-03-01T14:52:17;20.53;;;17.63;;
1879;SDS011;49285;49.002;8.390;2023-03-01T14:54:49;19.87;;;16.63;;
1879;SDS011;49285;49.002;8.390;2023-03-01T14:57:22;21.03;;;17.63;;
1879;SDS011;49285;49.002;8.390;2023-03-01T14:59:51;23.13;;;18.43;;
1879;SDS011;49285;49.002;8.390;2023-03-01T15:02:24;21.47;;;18.33;;
1879;SDS011;49285;49.002;8.390;2023-03-01T15:04:55;20.00;;;17.90;;
1879;SDS011;49285;49.002;8.390;2023-03-01T15:07:22;19.83;;;17.40;;
1879;SDS011;49285;49.002;8.390;2023-03-01T15:09:53;19.13;;;16.23;;
1879;SDS011;49285;49.002;8.390;2023-03-01T15:12:34;20.93;;;18.37;;
1879;SDS011;49285;49.002;8.390;2023-03-01T15:15:01;22.77;;;17.87;;
1879;SDS011;49285;49.002;8.390;2023-03-01T15:17:43;19.73;;;17.70;;
1879;SDS011;49285;49.002;8.390;2023-03-01T15:20:16;23.50;;;16.83;;
1879;SDS011;49285;49.002;8.390;2023-03-01T15:22:46;21.57;;;18.20;;
1879;SDS011;49285;49.002;8.390;2023-03-01T15:25:17;22.73;;;17.23;;
1879;SDS011;49285;49.002;8.390;2023-03-01T15:27:48;29.73;;;19.13;;
1879;SDS011;49285;49.002;8.390;2023-03-01T15:30:18;18.87;;;16.83;;
1879;SDS011;49285;49.002;8.390;2023-03-01T15:32:48;25.90;;;19.60;;
1879;SDS011;49285;49.002;8.390;2023-03-01T15:35:32;23.77;;;18.63;;
1879;SDS011;49285;49.002;8.390;2023-03-01T15:40:59;30.27;;;21.93;;
1879;SDS011;49285;49.002;8.390;2023-03-01T15:43:37;57.47;;;34.77;;
1879;SDS011;49285;49.002;8.390;2023-03-01T15:46:15;31.93;;;23.60;;
1879;SDS011;49285;49.002;8.390;2023-03-01T15:48:57;26.30;;;19.97;;
1879;SDS011;49285;49.002;8.390;2023-03-01T15:51:32;22.90;;;19.53;;
1879;SDS011;49285;49.002;8.390;2023-03-01T15:54:01;20.83;;;17.53;;
1879;SDS011;49285;49.002;8.390;2023-03-01T15:56:29;21.40;;;17.60;;
1879;SDS011;49285;49.002;8.390;2023-03-01T15:59:01;21.93;;;18.37;;
1879;SDS011;49285;49.002;8.390;2023-03-01T16:01:29;23.90;;;17.40;;
1879;SDS011;49285;49.002;8.390;2023-03-01T16:03:55;20.60;;;16.77;;
1879;SDS011;49285;49.002;8.390;2023-03-01T16:06:23;20.10;;;16.73;;
1879;SDS011;49285;49.002;8.390;2023-03-01T16:08:48;21.20;;;17.83;;
1879;SDS011;49285;49.002;8.390;2023-03-01T16:11:16;22.80;;;16.90;;
1879;SDS011;49285;49.002;8.390;2023-03-01T16:13:43;20.30;;;15.80;;
1879;SDS011;49285;49.002;8.390;2023-03-01T16:16:10;22.10;;;16.87;;
1879;SDS011;49285;49.002;8.390;2023-03-01T16:18:44;26.83;;;18.00;;
1879;SDS011;49285;49.002;8.390;2023-03-01T16:21:12;25.43;;;18.60;;
1879;SDS011;49285;49.002;8.390;2023-03-01T16:23:45;21.93;;;16.20;;
1879;SDS011;49285;49.002;8.390;2023-03-01T16:26:11;19.03;;;16.37;;
1879;SDS011;49285;49.002;8.390;2023-03-01T16:28:37;21.60;;;15.50;;
1879;SDS011;49285;49.002;8.390;2023-03-01T16:31:04;24.70;;;16.90;;
1879;SDS011;49285;49.002;8.390;2023-03-01T16:33:30;17.77;;;15.20;;
1879;SDS011;49285;49.002;8.390;2023-03-01T16:35:56;20.53;;;16.53;;